Wednesday, December 19, 2018, 4:34 PM GMT
Back to Local

CXKT, Kentville , N. S.

Location: , , Canada Lat: 45.067
Local Time: 4:34 PM GMT (16:34 GMT) Lon: -64.483
Time Zone: GMT Elev: 160 ft

Show me the last for .
Show Coded

Time T Td Feel RH Dir Speed Gust Alt SLP Vis Weather Sky Remarks
2018-12-19 16:00 25 17 11 70 260° 13 20 - 29.80 0 Peak wind: 19 mph (17 kts) from 270° at 19 min
2018-12-19 15:00 25 17 11 71 260° 12 18 - 29.80 0 Peak wind: 20 mph (18 kts) from 280° at 03 min
2018-12-19 14:00 25 17 11 70 270° 13 18 - 29.79 0 None
2018-12-19 13:00 23 16 14 72 280° 9 - - 29.79 0 Peak wind: 19 mph (17 kts) from 290° at 11 min
2018-12-19 12:00 24 16 10 72 280° 8 17 - 29.77 0 Peak wind: 24 mph (21 kts) from 300° at 00 min
2018-12-19 11:00 24 16 9 69 290° 14 23 - 29.74 0 Peak wind: 23 mph (20 kts) from 310° at 37 min
2018-12-19 10:00 25 16 11 68 290° 12 21 - 29.72 0 Peak wind: 26 mph (23 kts) from 300° at 16 min
2018-12-19 09:00 26 16 9 67 300° 16 30 - 29.68 0 Peak wind: 29 mph (26 kts) from 300° at 56 min
2018-12-19 08:00 26 17 11 67 300° 14 24 - 29.67 0 Peak wind: 27 mph (24 kts) from 290° at 09 min
2018-12-19 07:00 26 17 12 66 290° 13 22 - 29.65 0 Peak wind: 25 mph (22 kts) from 290° at 33 min
2018-12-19 06:00 27 18 12 68 290° 13 23 - 29.62 0 Peak wind: 26 mph (23 kts) from 290° at 38 min
2018-12-19 05:00 27 18 11 68 290° 15 26 - 29.59 0 Peak wind: 28 mph (25 kts) from 290° at 13 min
2018-12-19 04:00 26 18 12 70 290° 13 21 - 29.57 0 Peak wind: 31 mph (27 kts) from 290° at 07 min
2018-12-19 03:00 26 19 11 74 290° 13 24 - 29.56 0 Peak wind: 24 mph (21 kts) from 310° at 51 min
2018-12-19 02:00 26 19 13 72 270° 12 18 - 29.55 0 Peak wind: 25 mph (22 kts) from 270° at 03 min
2018-12-19 01:00 26 19 11 74 270° 14 25 - 29.51 0 Peak wind: 25 mph (22 kts) from 280° at 58 min
2018-12-19 00:00 27 20 13 77 270° 12 18 - 29.49 0 Peak wind: 28 mph (25 kts) from 280° at 18 min
2018-12-18 23:00 27 21 12 79 290° 17 25 - 29.44 0 Peak wind: 29 mph (26 kts) from 290° at 17 min
2018-12-18 22:00 27 22 11 80 290° 18 31 - 29.41 0 Peak wind: 34 mph (30 kts) from 290° at 37 min
2018-12-18 21:00 28 23 12 83 290° 17 28 - 29.38 0 Peak wind: 31 mph (27 kts) from 300° at 11 min
1-hr Precip Total: 0.01"
2018-12-18 20:00 28 24 12 86 290° 18 31 - 29.34 0 Peak wind: 31 mph (27 kts) from 280° at 52 min
2018-12-18 19:00 29 26 15 89 290° 17 24 - 29.29 0 Peak wind: 31 mph (27 kts) from 280° at 22 min
2018-12-18 18:00 29 28 14 95 280° 15 26 - 29.26 0 Peak wind: 26 mph (23 kts) from 270° at 51 min
1-hr Precip Total: 0.01"
2018-12-18 17:00 31 30 18 96 290° 13 20 - 29.24 0 Peak wind: 28 mph (25 kts) from 300° at 18 min
1-hr Precip Total: 0.01"

Support USWX by starting your Amazon purchase here.